Tussy, Oklahoma
Current Conditions -  °F | °C
As of 4:35 AM on Sunday 21 Dec 2014 (Local Time) from KPVJ Reporting Station
Haze Haze  
Wind Chill: 42°   Ceiling: 2200
Heat Index: 42°   Visibility: 5mi
Dew Point: 41°   Wind: 3mph
Humidity: 97%   Direction: 140°SE
Pressure: 30.09"   Gusts: NA
Location:  34.5°N, 97.54°W
Report Text: KPVJ 211035Z AUTO 14003KT 5SM BR OVC022 06/05 A3009 RMK AO2 T00570052
Loading
Personal Weather Stations






























Interactive Weather Map New forecast layout! Learn more

10-Day Weather Forecast

Advertisements
Track Severe Weather on mobile